createdAt,value
2022-12-18T00:01:29.199Z,-6.57
2022-12-18T00:03:56.766Z,-6.61
2022-12-18T00:06:25.663Z,-6.62
2022-12-18T00:08:52.173Z,-6.69
2022-12-18T00:11:25.036Z,-6.71
2022-12-18T00:13:52.370Z,-6.73
2022-12-18T00:16:21.831Z,-6.73
2022-12-18T00:18:53.500Z,-6.75
2022-12-18T00:21:21.051Z,-6.75
2022-12-18T00:23:48.726Z,-6.75
2022-12-18T00:26:18.294Z,-6.76
2022-12-18T00:28:45.382Z,-6.76
2022-12-18T00:31:15.030Z,-6.78
2022-12-18T00:33:42.419Z,-6.78
2022-12-18T00:36:14.831Z,-6.77
2022-12-18T00:38:41.659Z,-6.82
2022-12-18T00:41:09.699Z,-6.81
2022-12-18T00:43:37.503Z,-6.84
2022-12-18T00:46:04.653Z,-6.83
2022-12-18T00:48:31.692Z,-6.83
2022-12-18T00:50:58.223Z,-6.83
2022-12-18T00:53:24.734Z,-6.82
2022-12-18T00:55:51.126Z,-6.88
2022-12-18T00:58:17.859Z,-6.95
2022-12-18T01:00:44.669Z,-6.96
2022-12-18T01:03:14.360Z,-6.96
2022-12-18T01:05:42.286Z,-6.96
2022-12-18T01:08:08.689Z,-6.99
2022-12-18T01:10:35.122Z,-7.00
2022-12-18T01:13:01.556Z,-6.96
2022-12-18T01:15:28.018Z,-6.93
2022-12-18T01:17:54.546Z,-6.93
2022-12-18T01:20:21.574Z,-6.96
2022-12-18T01:22:47.947Z,-6.97
2022-12-18T01:25:14.360Z,-7.00
2022-12-18T01:27:40.868Z,-7.02
2022-12-18T01:30:08.634Z,-7.04
2022-12-18T01:32:35.197Z,-7.05
2022-12-18T01:35:01.629Z,-7.04
2022-12-18T01:37:28.359Z,-7.07
2022-12-18T01:39:55.620Z,-7.09
2022-12-18T01:42:22.569Z,-7.07
2022-12-18T01:45:16.901Z,-7.04
2022-12-18T01:47:46.328Z,-7.01
2022-12-18T01:50:17.141Z,-6.99
2022-12-18T01:52:47.729Z,-6.98
2022-12-18T01:55:17.514Z,-6.98
2022-12-18T01:57:44.264Z,-6.97
2022-12-18T02:00:15.601Z,-6.92
2022-12-18T02:02:44.421Z,-6.92
2022-12-18T02:05:13.770Z,-6.89
2022-12-18T02:08:14.749Z,-6.88
2022-12-18T02:10:41.309Z,-6.92
2022-12-18T02:13:15.193Z,-6.95
2022-12-18T02:16:06.148Z,-6.97
2022-12-18T02:18:42.365Z,-6.97
2022-12-18T02:21:30.768Z,-6.97
2022-12-18T02:24:04.314Z,-6.99
2022-12-18T02:26:38.727Z,-7.01
2022-12-18T02:29:11.522Z,-7.03
2022-12-18T02:31:45.560Z,-7.03
2022-12-18T02:34:14.344Z,-7.05
2022-12-18T02:36:44.873Z,-7.08
2022-12-18T02:39:14.183Z,-7.11
2022-12-18T02:41:40.925Z,-7.08
2022-12-18T02:44:10.764Z,-7.06
2022-12-18T02:46:54.101Z,-7.07
2022-12-18T02:49:35.958Z,-7.11
2022-12-18T02:52:35.988Z,-7.17
2022-12-18T02:55:14.377Z,-7.23
2022-12-18T02:57:51.323Z,-7.26
2022-12-18T03:00:24.438Z,-7.24
2022-12-18T03:03:03.014Z,-7.26
2022-12-18T03:06:02.293Z,-7.29
2022-12-18T03:08:31.022Z,-7.33
2022-12-18T03:11:05.589Z,-7.32
2022-12-18T03:13:48.970Z,-7.32
2022-12-18T03:16:24.139Z,-7.35
2022-12-18T03:18:58.289Z,-7.42
2022-12-18T03:21:41.806Z,-7.45
2022-12-18T03:24:10.843Z,-7.53
2022-12-18T03:26:41.105Z,-7.56
2022-12-18T03:29:14.056Z,-7.64
2022-12-18T03:31:44.472Z,-7.64
2022-12-18T03:34:16.475Z,-7.66
2022-12-18T03:36:42.961Z,-7.69
2022-12-18T03:39:09.415Z,-7.77
2022-12-18T03:41:46.193Z,-7.76
2022-12-18T03:44:27.743Z,-7.75
2022-12-18T03:47:08.804Z,-7.73
2022-12-18T03:49:50.364Z,-7.70
2022-12-18T03:52:37.298Z,-7.69
2022-12-18T03:55:06.074Z,-7.68
2022-12-18T03:57:33.945Z,-7.65
2022-12-18T04:00:09.517Z,-7.62
2022-12-18T04:02:39.483Z,-7.61
2022-12-18T04:05:08.304Z,-7.62
2022-12-18T04:07:35.546Z,-7.67
2022-12-18T04:10:04.344Z,-7.72
2022-12-18T04:12:31.145Z,-7.73
2022-12-18T04:14:57.571Z,-7.73
2022-12-18T04:17:24.755Z,-7.69
2022-12-18T04:19:51.511Z,-7.68
2022-12-18T04:22:17.901Z,-7.67
2022-12-18T04:24:44.264Z,-7.68
2022-12-18T04:27:10.679Z,-7.67
2022-12-18T04:29:37.059Z,-7.68
2022-12-18T04:32:03.524Z,-7.72
2022-12-18T04:34:29.911Z,-7.72
2022-12-18T04:36:57.058Z,-7.74
2022-12-18T04:39:24.071Z,-7.78
2022-12-18T04:41:51.175Z,-7.83
2022-12-18T04:44:17.637Z,-7.89
2022-12-18T04:46:44.146Z,-7.89
2022-12-18T04:49:13.903Z,-7.90
2022-12-18T04:51:40.309Z,-7.88
2022-12-18T04:54:06.844Z,-7.92
2022-12-18T04:56:33.353Z,-7.97
2022-12-18T04:58:59.726Z,-8.02
2022-12-18T05:01:30.968Z,-8.10
2022-12-18T05:04:00.763Z,-8.23
2022-12-18T05:06:27.245Z,-8.26
2022-12-18T05:08:53.691Z,-8.32
2022-12-18T05:11:20.133Z,-8.34
2022-12-18T05:13:46.607Z,-8.36
2022-12-18T05:16:13.861Z,-8.38
2022-12-18T05:18:40.487Z,-8.35
2022-12-18T05:21:06.946Z,-8.36
2022-12-18T05:23:33.419Z,-8.37
2022-12-18T05:26:02.317Z,-8.36
2022-12-18T05:28:31.510Z,-8.36
2022-12-18T05:31:00.036Z,-8.38
2022-12-18T05:33:29.922Z,-8.41
2022-12-18T05:35:59.045Z,-8.42
2022-12-18T05:38:27.287Z,-8.41
2022-12-18T05:40:54.560Z,-8.40
2022-12-18T05:43:25.090Z,-8.38
2022-12-18T05:45:52.137Z,-8.39
2022-12-18T05:48:18.682Z,-8.41
2022-12-18T05:50:47.264Z,-8.43
2022-12-18T05:53:15.727Z,-8.42
2022-12-18T05:55:43.303Z,-8.43
2022-12-18T05:58:11.149Z,-8.39
2022-12-18T06:00:40.865Z,-8.39
2022-12-18T06:03:11.825Z,-8.44
2022-12-18T06:05:46.034Z,-8.45
2022-12-18T06:08:14.150Z,-8.45
2022-12-18T06:10:41.333Z,-8.43
2022-12-18T06:13:08.110Z,-8.44
2022-12-18T06:15:37.701Z,-8.43
2022-12-18T06:18:04.333Z,-8.41
2022-12-18T06:20:33.667Z,-8.39
2022-12-18T06:23:00.793Z,-8.35
2022-12-18T06:25:27.212Z,-8.32
2022-12-18T06:27:53.650Z,-8.32
2022-12-18T06:30:20.461Z,-8.32
2022-12-18T06:32:50.466Z,-8.30
2022-12-18T06:35:19.526Z,-8.26
2022-12-18T06:37:47.602Z,-8.26
2022-12-18T06:40:14.123Z,-8.26
2022-12-18T06:42:40.557Z,-8.31
2022-12-18T06:45:07.514Z,-8.37
2022-12-18T06:47:33.948Z,-8.43
2022-12-18T06:50:00.327Z,-8.50
2022-12-18T06:52:26.693Z,-8.58
2022-12-18T06:54:53.155Z,-8.65
2022-12-18T06:57:19.569Z,-8.74
2022-12-18T06:59:45.942Z,-8.81
2022-12-18T07:02:13.762Z,-8.91
2022-12-18T07:04:40.426Z,-8.98
2022-12-18T07:07:07.176Z,-9.03
2022-12-18T07:09:33.673Z,-9.07
2022-12-18T07:12:00.040Z,-9.08
2022-12-18T07:14:26.446Z,-9.08
2022-12-18T07:16:52.942Z,-9.10
2022-12-18T07:19:19.755Z,-9.04
2022-12-18T07:21:46.184Z,-9.00
2022-12-18T07:24:12.589Z,-8.95
2022-12-18T07:26:39.245Z,-8.88
2022-12-18T07:29:05.660Z,-8.83
2022-12-18T07:31:32.065Z,-8.78
2022-12-18T07:33:58.505Z,-8.67
2022-12-18T07:36:25.282Z,-8.55
2022-12-18T07:38:53.350Z,-8.51
2022-12-18T07:41:20.371Z,-8.43
2022-12-18T07:43:47.579Z,-8.38
2022-12-18T07:46:15.393Z,-8.33
2022-12-18T07:48:44.263Z,-8.31
2022-12-18T07:51:13.387Z,-8.28
2022-12-18T07:53:40.638Z,-8.29
2022-12-18T07:58:56.691Z,-8.28
2022-12-18T08:01:23.370Z,-8.24
2022-12-18T08:03:49.950Z,-8.21
2022-12-18T08:06:19.083Z,-8.17
2022-12-18T08:08:45.528Z,-8.13
2022-12-18T08:11:11.932Z,-8.08
2022-12-18T08:13:38.705Z,-8.04
2022-12-18T08:16:08.056Z,-8.00
2022-12-18T08:18:36.234Z,-7.93
2022-12-18T08:21:13.963Z,-7.86
2022-12-18T08:23:43.131Z,-7.78
2022-12-18T08:26:11.341Z,-7.71
2022-12-18T08:28:37.856Z,-7.70
2022-12-18T08:31:05.056Z,-7.62
2022-12-18T08:33:32.210Z,-7.60
2022-12-18T08:36:03.391Z,-7.60
2022-12-18T08:38:29.758Z,-7.55
2022-12-18T08:41:05.165Z,-7.52
2022-12-18T08:43:50.261Z,-7.46
2022-12-18T08:46:17.847Z,-7.41
2022-12-18T08:48:44.657Z,-7.31
2022-12-18T08:51:11.182Z,-7.26
2022-12-18T08:53:39.068Z,-7.24
2022-12-18T08:56:06.276Z,-7.19
2022-12-18T08:58:32.735Z,-7.12
2022-12-18T09:01:03.955Z,-7.09
2022-12-18T09:03:30.590Z,-7.04
2022-12-18T09:05:57.444Z,-6.94
2022-12-18T09:08:24.138Z,-6.87
2022-12-18T09:10:52.617Z,-6.83
2022-12-18T09:13:19.597Z,-6.75
2022-12-18T09:15:49.291Z,-6.67
2022-12-18T09:18:17.395Z,-6.64
2022-12-18T09:20:44.217Z,-6.50
2022-12-18T09:23:11.290Z,-6.42
2022-12-18T09:25:38.797Z,-6.35
2022-12-18T09:28:12.588Z,-6.29
2022-12-18T09:30:45.179Z,-6.26
2022-12-18T09:33:11.999Z,-6.22
2022-12-18T09:35:39.748Z,-6.18
2022-12-18T09:38:06.991Z,-6.09
2022-12-18T09:40:42.668Z,-5.93
2022-12-18T09:43:35.195Z,-5.74
2022-12-18T09:46:07.336Z,-5.56
2022-12-18T09:48:38.117Z,-5.30
2022-12-18T09:51:14.906Z,-5.07
2022-12-18T09:53:45.445Z,-4.84
2022-12-18T09:56:19.279Z,-4.64
2022-12-18T09:59:02.577Z,-4.44
2022-12-18T10:01:41.528Z,-4.31
2022-12-18T10:04:10.455Z,-4.19
2022-12-18T10:06:47.080Z,-4.12
2022-12-18T10:09:38.215Z,-4.04
2022-12-18T10:12:33.580Z,-4.02
2022-12-18T10:15:20.051Z,-3.94
2022-12-18T10:17:57.454Z,-3.89
2022-12-18T10:20:39.138Z,-3.88
2022-12-18T10:23:33.543Z,-3.85
2022-12-18T10:26:08.439Z,-3.84
2022-12-18T10:28:40.165Z,-3.77
2022-12-18T10:31:08.917Z,-3.73
2022-12-18T10:33:35.555Z,-3.60
2022-12-18T10:36:02.029Z,-3.42
2022-12-18T10:38:32.983Z,-3.22
2022-12-18T10:41:00.870Z,-2.95
2022-12-18T10:43:30.998Z,-2.79
2022-12-18T10:46:08.932Z,-2.69
2022-12-18T10:48:47.624Z,-2.43
2022-12-18T10:51:31.508Z,-2.42
2022-12-18T10:54:02.383Z,-2.28
2022-12-18T10:56:32.548Z,-2.17
2022-12-18T10:59:03.342Z,-2.06
2022-12-18T11:01:49.859Z,-1.95
2022-12-18T11:04:30.770Z,-1.82
2022-12-18T11:07:06.211Z,-1.91
2022-12-18T11:09:34.644Z,-1.64
2022-12-18T11:12:15.669Z,-1.52
2022-12-18T11:14:46.531Z,-1.49
2022-12-18T11:17:31.486Z,-1.39
2022-12-18T11:20:00.266Z,-1.29
2022-12-18T11:22:32.382Z,-1.18
2022-12-18T11:25:32.474Z,-1.16
2022-12-18T11:28:05.524Z,-1.11
2022-12-18T11:30:37.360Z,-1.11
2022-12-18T11:33:12.595Z,-1.16
2022-12-18T11:35:53.340Z,-1.08
2022-12-18T11:38:44.327Z,-0.99
2022-12-18T11:42:03.668Z,-0.91
2022-12-18T11:44:42.379Z,-0.85
2022-12-18T11:47:46.401Z,-0.87
2022-12-18T11:50:17.119Z,-0.99
2022-12-18T11:52:43.687Z,-0.99
2022-12-18T11:55:48.818Z,-0.96
2022-12-18T11:58:41.695Z,-1.00
2022-12-18T12:01:17.746Z,-0.94
2022-12-18T12:04:02.821Z,-1.10
2022-12-18T12:06:51.184Z,-1.10
2022-12-18T12:09:53.707Z,-1.07
2022-12-18T12:12:48.677Z,-1.05
2022-12-18T12:15:47.935Z,-1.08
2022-12-18T12:18:30.539Z,-1.16
2022-12-18T12:21:17.208Z,-1.16
2022-12-18T12:24:18.108Z,-1.16
2022-12-18T12:27:12.190Z,-1.22
2022-12-18T12:30:03.273Z,-1.27
2022-12-18T12:32:57.463Z,-1.29
2022-12-18T12:35:36.583Z,-1.76
2022-12-18T12:38:08.929Z,-1.89
2022-12-18T12:41:03.105Z,-1.87
2022-12-18T12:43:35.487Z,-1.78
2022-12-18T12:46:10.355Z,-1.82
2022-12-18T12:48:46.425Z,-1.99
2022-12-18T12:51:41.334Z,-1.95
2022-12-18T12:54:18.155Z,-1.90
2022-12-18T12:56:58.883Z,-1.83
2022-12-18T12:59:43.213Z,-1.76
2022-12-18T13:02:25.593Z,-1.82
2022-12-18T13:05:04.706Z,-1.76
2022-12-18T13:07:55.192Z,-1.72
2022-12-18T13:10:48.359Z,-1.66
2022-12-18T13:13:22.319Z,-1.68
2022-12-18T13:16:07.558Z,-1.57
2022-12-18T13:18:34.858Z,-1.48
2022-12-18T13:21:03.575Z,-1.47
2022-12-18T13:23:38.210Z,-1.38
2022-12-18T13:26:07.534Z,-1.39
2022-12-18T13:28:33.905Z,-1.36
2022-12-18T13:31:02.509Z,-1.35
2022-12-18T13:33:34.690Z,-1.36
2022-12-18T13:36:15.116Z,-1.47
2022-12-18T13:38:43.087Z,-1.49
2022-12-18T13:41:16.102Z,-1.43
2022-12-18T13:43:48.578Z,-1.50
2022-12-18T13:46:43.600Z,-1.46
2022-12-18T13:49:13.073Z,-1.40
2022-12-18T13:51:45.444Z,-1.45
2022-12-18T13:54:35.466Z,-1.47
2022-12-18T13:57:03.286Z,-1.47
2022-12-18T13:59:38.321Z,-1.45
2022-12-18T14:02:28.838Z,-1.43
2022-12-18T14:04:56.463Z,-1.43
2022-12-18T14:07:26.214Z,-1.40
2022-12-18T14:10:06.495Z,-1.40
2022-12-18T14:13:00.355Z,-1.40
2022-12-18T14:15:48.851Z,-1.45
2022-12-18T14:18:36.114Z,-1.45
2022-12-18T14:21:04.801Z,-1.53
2022-12-18T14:23:35.952Z,-1.53
2022-12-18T14:26:06.288Z,-1.60
2022-12-18T14:28:33.015Z,-1.63
2022-12-18T14:30:59.534Z,-1.64
2022-12-18T14:33:28.129Z,-1.68
2022-12-18T14:36:01.493Z,-1.71
2022-12-18T14:38:31.291Z,-1.76
2022-12-18T14:40:58.619Z,-1.78
2022-12-18T14:43:27.284Z,-1.84
2022-12-18T14:45:54.238Z,-1.85
2022-12-18T14:48:37.590Z,-1.86
2022-12-18T14:51:03.992Z,-1.91
2022-12-18T14:53:48.984Z,-1.92
2022-12-18T14:56:30.069Z,-1.98
2022-12-18T14:59:05.560Z,-2.00
2022-12-18T15:01:45.317Z,-2.04
2022-12-18T15:04:44.272Z,-2.12
2022-12-18T15:07:20.708Z,-2.09
2022-12-18T15:10:08.746Z,-2.15
2022-12-18T15:12:46.469Z,-2.15
2022-12-18T15:15:34.817Z,-2.19
2022-12-18T15:18:02.859Z,-2.17
2022-12-18T15:20:33.492Z,-2.14
2022-12-18T15:23:00.074Z,-2.16
2022-12-18T15:25:38.767Z,-2.19
2022-12-18T15:28:22.574Z,-2.17
2022-12-18T15:31:22.224Z,-2.17
2022-12-18T15:33:54.559Z,-2.14
2022-12-18T15:36:26.157Z,-2.12
2022-12-18T15:39:04.215Z,-2.13
2022-12-18T15:41:34.468Z,-2.10
2022-12-18T15:44:02.641Z,-2.09
2022-12-18T15:46:31.789Z,-2.11
2022-12-18T15:49:02.140Z,-2.11
2022-12-18T15:51:33.518Z,-2.07
2022-12-18T15:54:04.593Z,-2.09
2022-12-18T15:56:49.843Z,-2.11
2022-12-18T15:59:18.549Z,-2.13
2022-12-18T16:01:48.114Z,-2.16
2022-12-18T16:04:17.664Z,-2.14
2022-12-18T16:07:13.442Z,-2.15
2022-12-18T16:09:30.679Z,-2.17
2022-12-18T16:11:57.153Z,-2.16
2022-12-18T16:14:28.337Z,-2.15
2022-12-18T16:17:00.651Z,-2.17
2022-12-18T16:19:27.943Z,-2.20
2022-12-18T16:21:57.674Z,-2.19
2022-12-18T16:24:26.908Z,-2.21
2022-12-18T16:26:54.383Z,-2.20
2022-12-18T16:29:25.655Z,-2.21
2022-12-18T16:31:52.981Z,-2.19
2022-12-18T16:34:26.771Z,-2.19
2022-12-18T16:37:05.766Z,-2.18
2022-12-18T16:39:35.166Z,-2.17
2022-12-18T16:42:09.679Z,-2.17
2022-12-18T16:44:36.396Z,-2.21
2022-12-18T16:47:04.255Z,-2.22
2022-12-18T16:49:31.548Z,-2.23
2022-12-18T16:51:58.133Z,-2.23
2022-12-18T16:54:25.065Z,-2.22
2022-12-18T16:56:52.365Z,-2.22
2022-12-18T16:59:19.923Z,-2.22
2022-12-18T17:01:47.157Z,-2.23
2022-12-18T17:04:14.430Z,-2.23
2022-12-18T17:06:43.726Z,-2.25
2022-12-18T17:09:16.077Z,-2.23
2022-12-18T17:11:43.149Z,-2.25
2022-12-18T17:14:13.420Z,-2.27
2022-12-18T17:16:40.134Z,-2.26
2022-12-18T17:19:10.858Z,-2.26
2022-12-18T17:21:41.972Z,-2.25
2022-12-18T17:24:08.781Z,-2.26
2022-12-18T17:26:35.165Z,-2.29
2022-12-18T17:29:01.604Z,-2.27
2022-12-18T17:31:29.987Z,-2.25
2022-12-18T17:33:57.542Z,-2.24
2022-12-18T17:36:28.510Z,-2.24
2022-12-18T17:38:57.598Z,-2.24
2022-12-18T17:41:25.210Z,-2.27
2022-12-18T17:43:56.148Z,-2.30
2022-12-18T17:46:23.185Z,-2.29
2022-12-18T17:48:49.706Z,-2.30
2022-12-18T17:51:16.908Z,-2.26
2022-12-18T17:53:44.258Z,-2.28
2022-12-18T17:56:15.513Z,-2.28
2022-12-18T17:58:42.714Z,-2.27
2022-12-18T18:01:09.382Z,-2.29
2022-12-18T18:03:38.776Z,-2.28
2022-12-18T18:06:05.833Z,-2.24
2022-12-18T18:08:33.453Z,-2.25
2022-12-18T18:11:26.785Z,-2.22
2022-12-18T18:14:02.350Z,-2.23
2022-12-18T18:16:28.809Z,-2.24
2022-12-18T18:18:58.368Z,-2.20
2022-12-18T18:21:24.934Z,-2.20
2022-12-18T18:23:52.419Z,-2.20
2022-12-18T18:26:22.083Z,-2.20
2022-12-18T18:28:49.025Z,-2.20
2022-12-18T18:31:16.015Z,-2.16
2022-12-18T18:33:43.157Z,-2.16
2022-12-18T18:36:11.104Z,-2.13
2022-12-18T18:38:37.525Z,-2.14
2022-12-18T18:41:05.310Z,-2.10
2022-12-18T18:43:32.197Z,-2.09
2022-12-18T18:46:00.731Z,-2.05
2022-12-18T18:48:30.941Z,-2.02
2022-12-18T18:51:02.828Z,-2.00
2022-12-18T18:53:29.754Z,-2.00
2022-12-18T18:56:37.376Z,-1.96
2022-12-18T18:58:46.697Z,-1.96
2022-12-18T19:01:18.906Z,-1.94
2022-12-18T19:03:46.113Z,-1.93
2022-12-18T19:06:19.206Z,-1.88
2022-12-18T19:08:47.167Z,-1.90
2022-12-18T19:11:36.352Z,-1.90
2022-12-18T19:14:05.665Z,-1.85
2022-12-18T19:16:33.235Z,-1.81
2022-12-18T19:19:01.964Z,-1.79
2022-12-18T19:21:29.439Z,-1.75
2022-12-18T19:23:59.365Z,-1.72
2022-12-18T19:26:28.226Z,-1.70
2022-12-18T19:29:00.914Z,-1.65
2022-12-18T19:31:33.426Z,-1.66
2022-12-18T19:34:02.315Z,-1.60
2022-12-18T19:36:30.070Z,-1.57
2022-12-18T19:38:58.911Z,-1.54
2022-12-18T19:41:29.129Z,-1.52
2022-12-18T19:43:58.405Z,-1.51
2022-12-18T19:46:25.101Z,-1.48
2022-12-18T19:48:51.791Z,-1.45
2022-12-18T19:51:24.242Z,-1.40
2022-12-18T19:53:56.620Z,-1.37
2022-12-18T19:56:26.759Z,-1.36
2022-12-18T19:58:54.481Z,-1.34
2022-12-18T20:01:22.887Z,-1.31
2022-12-18T20:03:52.700Z,-1.29
2022-12-18T20:06:25.018Z,-1.24
2022-12-18T20:08:51.794Z,-1.20
2022-12-18T20:11:20.917Z,-1.19
2022-12-18T20:13:47.338Z,-1.19
2022-12-18T20:16:13.946Z,-1.13
2022-12-18T20:18:40.493Z,-1.11
2022-12-18T20:21:09.500Z,-1.12
2022-12-18T20:23:40.531Z,-1.17
2022-12-18T20:26:07.782Z,-1.10
2022-12-18T20:28:35.179Z,-1.06
2022-12-18T20:31:03.726Z,-1.06
2022-12-18T20:33:30.625Z,-1.05
2022-12-18T20:36:06.158Z,-1.06
2022-12-18T20:38:34.547Z,-1.07
2022-12-18T20:41:04.801Z,-1.02
2022-12-18T20:43:31.256Z,-1.02
2022-12-18T20:46:05.493Z,-1.00
2022-12-18T20:48:32.780Z,-1.02
2022-12-18T20:51:02.080Z,-0.99
2022-12-18T20:53:30.524Z,-0.96
2022-12-18T20:55:57.092Z,-1.01
2022-12-18T20:58:23.869Z,-0.98
2022-12-18T21:00:50.826Z,-0.99
2022-12-18T21:03:18.788Z,-1.01
2022-12-18T21:05:45.320Z,-0.99
2022-12-18T21:08:11.912Z,-0.99
2022-12-18T21:10:42.367Z,-1.01
2022-12-18T21:13:09.535Z,-1.01
2022-12-18T21:15:37.738Z,-1.04
2022-12-18T21:18:04.381Z,-1.02
2022-12-18T21:20:31.090Z,-0.99
2022-12-18T21:23:15.658Z,-0.98
2022-12-18T21:25:43.422Z,-0.98
2022-12-18T21:28:09.813Z,-0.98
2022-12-18T21:30:36.493Z,-0.94
2022-12-18T21:33:03.133Z,-0.92
2022-12-18T21:35:29.624Z,-0.86
2022-12-18T21:37:58.596Z,-0.86
2022-12-18T21:40:25.156Z,-0.83
2022-12-18T21:43:10.770Z,-0.82
2022-12-18T21:45:41.572Z,-0.83
2022-12-18T21:48:08.046Z,-0.80
2022-12-18T21:50:34.414Z,-0.81
2022-12-18T21:53:00.790Z,-0.78
2022-12-18T21:55:27.177Z,-0.76
2022-12-18T21:57:53.872Z,-0.74
2022-12-18T22:00:20.316Z,-0.73
2022-12-18T22:02:48.349Z,-0.72
2022-12-18T22:05:28.793Z,-0.72
2022-12-18T22:07:55.257Z,-0.68
2022-12-18T22:10:21.670Z,-0.63
2022-12-18T22:12:48.909Z,-0.59
2022-12-18T22:15:21.643Z,-0.56
2022-12-18T22:17:52.722Z,-0.56
2022-12-18T22:20:26.441Z,-0.54
2022-12-18T22:22:53.370Z,-0.53
2022-12-18T22:25:19.837Z,-0.51
2022-12-18T22:28:06.230Z,-0.50
2022-12-18T22:30:32.660Z,-0.50
2022-12-18T22:32:59.604Z,-0.50
2022-12-18T22:35:26.033Z,-0.50
2022-12-18T22:37:52.439Z,-0.48
2022-12-18T22:40:24.108Z,-0.53
2022-12-18T22:42:51.785Z,-0.52
2022-12-18T22:45:22.949Z,-0.53
2022-12-18T22:47:49.666Z,-0.54
2022-12-18T22:50:16.087Z,-0.57
2022-12-18T22:52:42.707Z,-0.53
2022-12-18T22:55:09.313Z,-0.53
2022-12-18T22:57:35.724Z,-0.52
2022-12-18T23:00:04.892Z,-0.53
2022-12-18T23:02:31.401Z,-0.48
2022-12-18T23:04:57.945Z,-0.46
2022-12-18T23:07:24.372Z,-0.48
2022-12-18T23:09:50.990Z,-0.46
2022-12-18T23:12:24.823Z,-0.45
2022-12-18T23:14:51.538Z,-0.43
2022-12-18T23:17:17.948Z,-0.45
2022-12-18T23:19:48.998Z,-0.42
2022-12-18T23:22:16.519Z,-0.41
2022-12-18T23:24:42.900Z,-0.38
2022-12-18T23:27:11.352Z,-0.36
2022-12-18T23:29:38.860Z,-0.31
2022-12-18T23:32:05.314Z,-0.26
2022-12-18T23:34:31.709Z,-0.25
2022-12-18T23:36:58.133Z,-0.20
2022-12-18T23:39:29.439Z,-0.17
2022-12-18T23:42:00.310Z,-0.12
2022-12-18T23:44:26.907Z,-0.10
2022-12-18T23:46:53.428Z,-0.04
2022-12-18T23:49:20.210Z,0.01
2022-12-18T23:51:46.673Z,0.05
2022-12-18T23:54:13.173Z,0.07
2022-12-18T23:56:39.593Z,0.10
2022-12-18T23:59:06.214Z,0.10
